Time;durP1;ratioP1;P1;durP2;ratioP2;P2;SDS_P1;SDS_P2;PMS_P1;PMS_P2;Temp;Humidity;BMP_temperature;BMP_pressure;BME280_temperature;BME280_humidity;BME280_pressure;Samples;Min_cycle;Max_cycle;Signal;HPM_P1;HPM_P2
2023/08/22 00:01:04;;;;;;;7.47;3.15;;;17.50;99.90;;;;;;5096662;28;20369;-92
2023/08/22 00:03:34;;;;;;;5.80;3.10;;;17.40;99.90;;;;;;5065455;28;20061;-91
2023/08/22 00:06:01;;;;;;;6.60;3.20;;;17.60;99.90;;;;;;5063219;28;20040;-91
2023/08/22 00:08:27;;;;;;;6.35;3.38;;;17.50;99.90;;;;;;5096557;28;20490;-91
2023/08/22 00:10:55;;;;;;;6.25;3.20;;;17.50;99.90;;;;;;5096852;28;20130;-92
2023/08/22 00:13:24;;;;;;;6.68;3.40;;;17.50;99.90;;;;;;5097080;28;20100;-92
2023/08/22 00:15:51;;;;;;;5.65;3.13;;;17.50;99.90;;;;;;5080541;28;20492;-92
2023/08/22 00:18:18;;;;;;;5.00;2.90;;;17.50;99.90;;;;;;5079902;28;20040;-92
2023/08/22 00:20:45;;;;;;;6.75;2.92;;;17.50;99.90;;;;;;5079891;28;20044;-92
2023/08/22 00:23:14;;;;;;;5.82;2.92;;;17.10;99.90;;;;;;5079604;28;20381;-91
2023/08/22 00:25:51;;;;;;;4.93;2.90;;;17.50;99.90;;;;;;5113425;28;20047;-93
2023/08/22 00:28:21;;;;;;;6.18;3.10;;;17.50;99.90;;;;;;5079757;28;20047;-92
2023/08/22 00:30:51;;;;;;;5.90;3.25;;;17.50;99.90;;;;;;5096608;28;20516;-92
2023/08/22 00:33:18;;;;;;;5.82;2.97;;;17.50;99.90;;;;;;5079029;28;20044;-92
2023/08/22 00:35:45;;;;;;;5.70;2.95;;;17.50;99.90;;;;;;5096618;28;20044;-92
2023/08/22 00:38:12;;;;;;;6.72;3.00;;;17.50;99.90;;;;;;5095381;28;20043;-92
2023/08/22 00:40:40;;;;;;;6.68;3.28;;;17.50;99.90;;;;;;5112943;28;20041;-92
2023/08/22 00:43:12;;;;;;;6.72;2.90;;;17.50;99.90;;;;;;5095335;28;20131;-92
2023/08/22 00:45:41;;;;;;;8.20;3.47;;;17.50;99.90;;;;;;5095528;28;20083;-92
2023/08/22 00:48:16;;;;;;;6.20;3.20;;;17.60;99.90;;;;;;5095309;28;20131;-92
2023/08/22 00:50:45;;;;;;;5.75;3.22;;;17.60;99.90;;;;;;5092422;28;20498;-92
2023/08/22 00:53:12;;;;;;;8.38;3.72;;;17.60;99.90;;;;;;5075329;28;20087;-91
2023/08/22 00:55:45;;;;;;;4.95;2.90;;;17.60;99.90;;;;;;5109176;28;20454;-92
2023/08/22 00:58:15;;;;;;;5.43;3.20;;;17.50;99.90;;;;;;5075941;28;20090;-92
2023/08/22 01:00:42;;;;;;;7.47;3.58;;;17.60;99.90;;;;;;5076109;28;20040;-92
2023/08/22 01:03:12;;;;;;;8.50;3.20;;;17.60;99.90;;;;;;5091825;28;20044;-91
2023/08/22 01:05:45;;;;;;;11.00;3.33;;;17.60;99.90;;;;;;5091636;28;20045;-92
2023/08/22 01:08:20;;;;;;;6.57;3.40;;;17.60;99.90;;;;;;5091709;28;20044;-92
2023/08/22 01:10:53;;;;;;;8.60;3.50;;;17.60;99.90;;;;;;5092090;28;20061;-92
2023/08/22 01:13:29;;;;;;;7.82;4.10;;;17.60;99.90;;;;;;5108870;28;20063;-93
2023/08/22 01:15:59;;;;;;;9.48;4.55;;;17.50;99.90;;;;;;5092658;28;20083;-92
2023/08/22 01:18:34;;;;;;;7.13;4.40;;;17.50;99.90;;;;;;5108828;28;20561;-92
2023/08/22 01:21:05;;;;;;;9.35;4.78;;;17.50;99.90;;;;;;5090997;28;20035;-91
2023/08/22 01:23:32;;;;;;;9.38;4.63;;;17.50;99.90;;;;;;5092241;28;20047;-92
2023/08/22 01:26:04;;;;;;;7.95;4.63;;;17.40;99.90;;;;;;5092022;28;20040;-91
2023/08/22 01:28:39;;;;;;;10.75;5.10;;;17.40;99.90;;;;;;5092330;28;20043;-92
2023/08/22 01:31:25;;;;;;;9.27;4.60;;;17.40;99.90;;;;;;5091887;28;20075;-92
2023/08/22 01:34:08;;;;;;;8.15;5.38;;;17.40;99.90;;;;;;5091698;28;20051;-91
2023/08/22 01:36:37;;;;;;;10.45;4.95;;;17.40;99.90;;;;;;5091777;28;20032;-92
2023/08/22 01:39:07;;;;;;;9.43;4.82;;;17.30;99.90;;;;;;5091559;28;20043;-91
2023/08/22 01:41:35;;;;;;;9.30;4.65;;;17.30;99.90;;;;;;5090955;28;20399;-92
2023/08/22 01:44:05;;;;;;;8.00;4.55;;;17.30;99.90;;;;;;5108175;28;20116;-90
2023/08/22 01:46:35;;;;;;;9.45;4.57;;;17.30;99.90;;;;;;5091860;28;20044;-92
2023/08/22 01:49:02;;;;;;;6.95;4.43;;;17.40;99.90;;;;;;5090902;28;20052;-92
2023/08/22 01:51:29;;;;;;;8.90;4.97;;;17.30;99.90;;;;;;5090968;28;20040;-92
2023/08/22 01:53:56;;;;;;;7.25;5.18;;;17.40;99.90;;;;;;5091412;28;20039;-93
2023/08/22 01:56:31;;;;;;;9.50;4.97;;;17.30;99.90;;;;;;5091283;28;20075;-92
2023/08/22 01:58:58;;;;;;;9.18;4.38;;;17.30;99.90;;;;;;5091417;28;20044;-92
2023/08/22 02:01:25;;;;;;;7.22;4.70;;;17.30;99.90;;;;;;5090766;28;20084;-92
2023/08/22 02:03:52;;;;;;;9.23;5.13;;;17.30;99.90;;;;;;5075155;28;20090;-92
2023/08/22 02:06:21;;;;;;;9.18;4.68;;;17.30;99.90;;;;;;5091007;28;20044;-92
2023/08/22 02:08:51;;;;;;;10.13;5.72;;;17.30;99.90;;;;;;5074244;28;20037;-92
2023/08/22 02:11:19;;;;;;;8.77;5.07;;;17.20;99.90;;;;;;5090791;28;20068;-92
2023/08/22 02:13:46;;;;;;;9.93;5.50;;;17.20;99.90;;;;;;5090778;28;20127;-92
2023/08/22 02:16:21;;;;;;;10.57;5.03;;;17.20;99.90;;;;;;5091203;28;20062;-92
2023/08/22 02:18:48;;;;;;;8.02;4.75;;;17.20;99.90;;;;;;5074785;28;20044;-92
2023/08/22 02:21:19;;;;;;;8.88;5.03;;;17.20;99.90;;;;;;5074320;28;20097;-92
2023/08/22 02:23:46;;;;;;;11.30;5.47;;;17.20;99.90;;;;;;5091181;28;20127;-93
2023/08/22 02:26:13;;;;;;;10.20;5.50;;;17.20;99.90;;;;;;5090298;28;20149;-92
2023/08/22 02:28:40;;;;;;;10.38;5.43;;;17.30;99.90;;;;;;5090994;28;20032;-92
2023/08/22 02:31:07;;;;;;;8.80;5.75;;;17.20;99.90;;;;;;5091198;28;20051;-92
2023/08/22 02:33:35;;;;;;;8.48;5.65;;;17.30;99.90;;;;;;5107262;28;20077;-92
2023/08/22 02:36:03;;;;;;;8.50;4.85;;;17.20;99.90;;;;;;5091255;28;20560;-92
2023/08/22 02:38:32;;;;;;;8.55;4.88;;;17.10;99.90;;;;;;5075194;28;20500;-92
2023/08/22 02:40:59;;;;;;;9.50;5.63;;;17.10;99.90;;;;;;5090921;28;20044;-93
2023/08/22 02:43:29;;;;;;;10.07;5.45;;;17.10;99.90;;;;;;5090355;28;20127;-92
2023/08/22 02:45:56;;;;;;;9.40;4.70;;;17.10;99.90;;;;;;5090495;28;20060;-93
2023/08/22 02:48:23;;;;;;;10.60;5.40;;;17.00;99.90;;;;;;5075009;28;20044;-92
2023/08/22 02:50:50;;;;;;;8.00;5.05;;;17.00;99.90;;;;;;5078313;28;20044;-93
2023/08/22 02:53:17;;;;;;;8.50;4.90;;;17.00;99.90;;;;;;5094569;28;20373;-93
2023/08/22 02:55:47;;;;;;;9.23;4.80;;;17.10;99.90;;;;;;5078088;28;20044;-92
2023/08/22 02:58:22;;;;;;;8.32;4.60;;;17.00;99.90;;;;;;5094153;28;20036;-91
2023/08/22 03:00:49;;;;;;;10.98;4.88;;;17.00;99.90;;;;;;5094447;28;20052;-92
2023/08/22 03:03:20;;;;;;;9.70;5.57;;;17.00;99.90;;;;;;5094928;28;20050;-92
2023/08/22 03:05:53;;;;;;;9.80;4.97;;;17.00;99.90;;;;;;5094778;28;20401;-92
2023/08/22 03:08:20;;;;;;;10.95;4.93;;;17.00;99.90;;;;;;5110486;28;20087;-92
2023/08/22 03:10:48;;;;;;;8.38;5.10;;;17.00;99.90;;;;;;5095169;28;20054;-92
2023/08/22 03:13:18;;;;;;;9.13;4.90;;;17.00;99.90;;;;;;5111433;28;20067;-92
2023/08/22 03:15:46;;;;;;;9.23;4.80;;;17.00;99.90;;;;;;5094553;28;20055;-92
2023/08/22 03:18:18;;;;;;;9.93;5.00;;;16.90;99.90;;;;;;5095744;28;20044;-92
2023/08/22 03:20:50;;;;;;;9.23;4.95;;;16.90;99.90;;;;;;5094636;28;20063;-93
2023/08/22 03:23:17;;;;;;;8.25;5.00;;;16.90;99.90;;;;;;5095071;28;20044;-92
2023/08/22 03:25:47;;;;;;;10.27;4.88;;;16.90;99.90;;;;;;5094028;28;20194;-92
2023/08/22 03:28:13;;;;;;;8.55;4.80;;;16.90;99.90;;;;;;5094578;28;20144;-92
2023/08/22 03:30:40;;;;;;;9.15;5.40;;;16.90;99.90;;;;;;5077398;28;20036;-92
2023/08/22 03:33:11;;;;;;;9.52;5.20;;;16.80;99.90;;;;;;5111035;28;20039;-92
2023/08/22 03:35:44;;;;;;;10.70;6.00;;;16.80;99.90;;;;;;5079205;28;20047;-92
2023/08/22 03:38:12;;;;;;;10.05;5.70;;;16.80;99.90;;;;;;5093882;28;20058;-92
2023/08/22 03:40:39;;;;;;;9.93;5.90;;;16.80;99.90;;;;;;5094261;28;20127;-93
2023/08/22 03:43:06;;;;;;;10.60;5.78;;;16.80;99.90;;;;;;5078917;28;20089;-92
2023/08/22 03:45:34;;;;;;;8.43;5.20;;;16.70;99.90;;;;;;5081183;28;20127;-92
2023/08/22 03:48:03;;;;;;;12.02;5.40;;;16.70;99.90;;;;;;5098432;28;20052;-92
2023/08/22 03:50:41;;;;;;;8.43;5.85;;;16.70;99.90;;;;;;5098535;28;20044;-92
2023/08/22 03:53:15;;;;;;;8.73;4.85;;;16.60;99.90;;;;;;5097712;28;20113;-92
2023/08/22 03:55:44;;;;;;;10.23;5.30;;;16.50;99.90;;;;;;5097654;28;20074;-92
2023/08/22 03:58:11;;;;;;;9.55;5.53;;;16.60;99.90;;;;;;5097733;28;20047;-92
2023/08/22 04:00:41;;;;;;;8.05;5.75;;;16.50;99.90;;;;;;5080984;28;20559;-92
2023/08/22 04:03:08;;;;;;;11.35;5.80;;;16.60;99.90;;;;;;5097315;28;20043;-93
2023/08/22 04:05:35;;;;;;;10.63;5.97;;;16.50;99.90;;;;;;5096794;28;20087;-92
2023/08/22 04:08:02;;;;;;;10.95;6.22;;;16.50;99.90;;;;;;5097340;28;20032;-92
2023/08/22 04:10:28;;;;;;;10.73;5.93;;;16.50;99.90;;;;;;5097225;28;20040;-92
2023/08/22 04:12:55;;;;;;;9.82;6.28;;;16.30;99.90;;;;;;5097695;28;20043;-93
2023/08/22 04:15:28;;;;;;;10.75;6.28;;;16.40;99.90;;;;;;5099327;28;20073;-92
2023/08/22 04:17:55;;;;;;;10.70;6.00;;;16.30;99.90;;;;;;5080127;28;20055;-92
2023/08/22 04:20:22;;;;;;;11.02;6.38;;;16.30;99.90;;;;;;5097053;28;20043;-92
2023/08/22 04:22:52;;;;;;;10.27;6.13;;;16.30;99.90;;;;;;5097017;28;20044;-93
2023/08/22 04:25:23;;;;;;;9.45;6.30;;;16.20;99.90;;;;;;5082369;28;20044;-93
2023/08/22 04:27:58;;;;;;;9.88;5.95;;;16.10;99.90;;;;;;5097505;28;20105;-92
2023/08/22 04:30:29;;;;;;;9.35;5.90;;;16.10;99.90;;;;;;5113123;28;20055;-91
2023/08/22 04:33:02;;;;;;;10.88;6.30;;;16.10;99.90;;;;;;5096851;28;20172;-92
2023/08/22 04:35:30;;;;;;;10.85;6.30;;;16.10;99.90;;;;;;5080847;28;20036;-91
2023/08/22 04:37:58;;;;;;;9.05;6.10;;;16.00;99.90;;;;;;5113861;28;20046;-92
2023/08/22 04:40:32;;;;;;;11.75;6.40;;;16.00;99.90;;;;;;5130918;28;20048;-93
2023/08/22 04:43:00;;;;;;;14.82;7.00;;;16.00;99.90;;;;;;5112636;28;20108;-94
2023/08/22 04:45:30;;;;;;;10.05;6.25;;;16.00;99.90;;;;;;5098302;28;20094;-91
2023/08/22 04:48:03;;;;;;;9.40;6.50;;;16.00;99.90;;;;;;5097950;28;20040;-93
2023/08/22 04:50:38;;;;;;;10.60;6.47;;;15.90;99.90;;;;;;5097141;28;20052;-91
2023/08/22 04:53:05;;;;;;;10.10;6.45;;;15.90;99.90;;;;;;5080886;28;20032;-92
2023/08/22 04:55:32;;;;;;;11.80;7.22;;;15.90;99.90;;;;;;5095441;28;20043;-90
2023/08/22 04:57:59;;;;;;;11.35;6.63;;;15.90;99.90;;;;;;5079331;28;20056;-92
2023/08/22 05:00:26;;;;;;;11.82;7.40;;;15.80;99.90;;;;;;5112510;28;20058;-92
2023/08/22 05:02:58;;;;;;;10.68;7.25;;;15.80;99.90;;;;;;5096069;28;20048;-92
2023/08/22 05:05:25;;;;;;;12.13;7.38;;;15.90;99.90;;;;;;5096470;28;20121;-92
2023/08/22 05:07:52;;;;;;;10.80;7.00;;;15.80;99.90;;;;;;5095234;28;20036;-92
2023/08/22 05:10:19;;;;;;;10.45;7.70;;;15.80;99.90;;;;;;5079986;28;20122;-92
2023/08/22 05:12:46;;;;;;;13.52;7.28;;;15.80;99.90;;;;;;5079466;28;20091;-93
2023/08/22 05:15:16;;;;;;;9.65;6.65;;;15.80;99.90;;;;;;5097054;28;20075;-92
2023/08/22 05:17:43;;;;;;;10.55;7.30;;;15.90;99.90;;;;;;5063000;28;20051;-92
2023/08/22 05:20:20;;;;;;;11.55;7.82;;;15.90;99.90;;;;;;5096210;28;20043;-92
2023/08/22 05:22:49;;;;;;;12.52;7.20;;;15.70;99.90;;;;;;5095826;28;20330;-93
2023/08/22 05:25:17;;;;;;;11.70;7.68;;;15.90;99.90;;;;;;5111613;28;20416;-93
2023/08/22 05:27:44;;;;;;;12.38;7.60;;;15.90;99.90;;;;;;5095867;28;20047;-92
2023/08/22 05:30:17;;;;;;;10.75;7.13;;;15.90;99.90;;;;;;5094840;28;20044;-91
2023/08/22 05:32:48;;;;;;;14.82;8.32;;;15.90;99.90;;;;;;5079834;28;20039;-92
2023/08/22 05:35:19;;;;;;;13.63;7.60;;;16.10;99.90;;;;;;5098943;28;20058;-93
2023/08/22 05:37:50;;;;;;;14.02;7.38;;;16.00;99.90;;;;;;5095758;28;20127;-93
2023/08/22 05:40:17;;;;;;;11.32;7.57;;;16.00;99.90;;;;;;5079406;28;20042;-92
2023/08/22 05:42:47;;;;;;;14.90;7.35;;;16.00;99.90;;;;;;5095794;28;20119;-93
2023/08/22 05:45:14;;;;;;;10.52;6.70;;;16.10;99.90;;;;;;5095712;28;20492;-93
2023/08/22 05:47:44;;;;;;;11.95;6.65;;;16.10;99.90;;;;;;5079003;28;20036;-92
2023/08/22 05:50:14;;;;;;;12.98;7.72;;;16.20;99.90;;;;;;5094865;28;20074;-92
2023/08/22 05:52:46;;;;;;;12.80;8.25;;;16.20;99.90;;;;;;5095319;28;20044;-92
2023/08/22 05:55:15;;;;;;;10.88;7.00;;;16.30;99.90;;;;;;5079905;28;20055;-92
2023/08/22 05:57:45;;;;;;;13.27;7.10;;;16.40;99.90;;;;;;5095185;28;20132;-92
2023/08/22 06:00:16;;;;;;;11.38;7.38;;;16.40;99.90;;;;;;5095812;28;20476;-92
2023/08/22 06:02:47;;;;;;;11.23;7.10;;;16.50;99.90;;;;;;5095822;28;20054;-92
2023/08/22 06:05:19;;;;;;;11.73;7.32;;;16.50;99.90;;;;;;5097083;28;20040;-91
2023/08/22 06:07:49;;;;;;;12.23;6.88;;;16.50;99.90;;;;;;5078985;28;20047;-92
2023/08/22 06:10:25;;;;;;;12.25;6.70;;;16.50;99.90;;;;;;5095717;28;20036;-92
2023/08/22 06:12:52;;;;;;;11.52;6.30;;;16.60;99.90;;;;;;5077715;28;20044;-92
2023/08/22 06:15:21;;;;;;;11.45;6.78;;;16.60;99.90;;;;;;5095256;28;20065;-92
2023/08/22 06:18:11;;;;;;;13.68;7.18;;;16.70;99.90;;;;;;5095594;28;20450;-92
2023/08/22 06:20:52;;;;;;;12.30;6.90;;;16.70;99.90;;;;;;5096154;28;20044;-92
2023/08/22 06:23:21;;;;;;;12.80;6.65;;;16.80;99.90;;;;;;5080674;28;20036;-92
2023/08/22 06:26:19;;;;;;;14.32;7.32;;;16.80;99.90;;;;;;5081687;28;20044;-93
2023/08/22 06:28:52;;;;;;;12.48;6.93;;;16.80;99.90;;;;;;5083500;28;20097;-92
2023/08/22 06:31:50;;;;;;;10.80;7.32;;;17.00;99.90;;;;;;5095244;28;20054;-92
2023/08/22 06:34:23;;;;;;;11.52;7.68;;;17.20;99.90;;;;;;5099251;28;20032;-92
2023/08/22 06:36:53;;;;;;;14.73;6.93;;;17.20;99.90;;;;;;5097200;28;20043;-92
2023/08/22 06:39:20;;;;;;;13.70;7.20;;;17.20;99.90;;;;;;5097548;28;20044;-92
2023/08/22 06:41:47;;;;;;;12.85;7.10;;;17.20;99.90;;;;;;5098377;28;20040;-91
2023/08/22 06:44:17;;;;;;;13.05;7.97;;;17.30;99.90;;;;;;5098729;28;20537;-93
2023/08/22 06:46:47;;;;;;;16.23;8.80;;;17.30;99.90;;;;;;5098209;28;20052;-92
2023/08/22 06:49:20;;;;;;;15.13;8.38;;;17.40;99.90;;;;;;5098090;28;20082;-93
2023/08/22 06:51:52;;;;;;;15.88;8.88;;;17.50;99.90;;;;;;5102191;28;20101;-92
2023/08/22 06:54:49;;;;;;;15.90;8.70;;;17.60;99.90;;;;;;5083162;28;20028;-94
2023/08/22 06:57:24;;;;;;;13.82;8.30;;;17.50;99.90;;;;;;5096337;28;20480;-92
2023/08/22 06:59:51;;;;;;;15.45;8.02;;;17.80;99.90;;;;;;5079911;28;20071;-91
2023/08/22 07:02:21;;;;;;;15.43;7.80;;;18.00;99.90;;;;;;5096049;28;20033;-93
2023/08/22 07:05:03;;;;;;;12.32;7.78;;;18.20;99.90;;;;;;5083523;28;20052;-93
2023/08/22 07:07:36;;;;;;;14.10;7.50;;;18.30;99.90;;;;;;5065699;28;20029;-92
2023/08/22 07:10:11;;;;;;;13.32;7.32;;;18.50;99.90;;;;;;5074982;28;20037;-93
2023/08/22 07:12:46;;;;;;;10.80;7.25;;;18.70;99.90;;;;;;5077064;28;20055;-93
2023/08/22 07:15:19;;;;;;;17.10;6.93;;;18.80;99.90;;;;;;5061551;28;20047;-92
2023/08/22 07:17:59;;;;;;;14.10;6.32;;;18.90;99.90;;;;;;5060315;28;20037;-94
2023/08/22 07:20:41;;;;;;;14.98;6.93;;;19.00;99.90;;;;;;5069039;28;20075;-93
2023/08/22 07:23:29;;;;;;;11.07;6.50;;;19.10;99.90;;;;;;5072421;28;20055;-94
2023/08/22 07:25:58;;;;;;;13.57;6.82;;;19.30;99.90;;;;;;5102358;28;20044;-95
2023/08/22 07:28:38;;;;;;;11.68;6.35;;;19.30;99.90;;;;;;5084311;28;20047;-94
2023/08/22 07:31:08;;;;;;;14.57;6.30;;;19.40;99.90;;;;;;5082823;28;20044;-94
2023/08/22 07:33:35;;;;;;;10.90;6.28;;;19.50;99.90;;;;;;5081812;28;20131;-92
2023/08/22 07:36:07;;;;;;;11.73;5.80;;;19.70;99.90;;;;;;5113961;28;20111;-94
2023/08/22 07:38:37;;;;;;;8.60;5.13;;;19.80;99.90;;;;;;5082191;28;20039;-94
2023/08/22 07:41:08;;;;;;;10.15;5.45;;;19.90;99.90;;;;;;5081976;28;20074;-95
2023/08/22 07:43:43;;;;;;;14.77;5.60;;;20.00;99.90;;;;;;5098797;28;20046;-96
2023/08/22 07:46:37;;;;;;;10.98;5.22;;;19.60;99.90;;;;;;5069465;28;20067;-96
2023/08/22 07:52:29;;;;;;;12.30;4.53;;;20.20;99.90;;;;;;5069329;28;20052;-90
2023/08/22 07:54:56;;;;;;;9.00;4.22;;;20.30;99.90;;;;;;5057470;28;20044;-87
2023/08/22 07:57:22;;;;;;;12.90;4.05;;;20.40;99.90;;;;;;5074726;28;20055;-90
2023/08/22 07:59:49;;;;;;;9.05;4.60;;;20.50;99.90;;;;;;5074438;28;20036;-91
2023/08/22 08:02:16;;;;;;;9.15;4.97;;;20.60;99.90;;;;;;5056838;28;20052;-88
2023/08/22 08:04:43;;;;;;;9.63;3.97;;;20.70;99.90;;;;;;5073188;28;20143;-88
2023/08/22 08:07:12;;;;;;;6.45;3.70;;;20.60;99.90;;;;;;5073229;28;20044;-89
2023/08/22 08:09:39;;;;;;;8.85;3.10;;;20.70;99.90;;;;;;5073787;28;20499;-90
2023/08/22 08:12:06;;;;;;;9.13;3.30;;;20.70;99.90;;;;;;5074331;28;20037;-89
2023/08/22 08:18:01;;;;;;;7.00;2.70;;;20.70;99.90;;;;;;5091526;28;20041;-92
2023/08/22 08:20:49;;;;;;;6.45;2.38;;;20.60;99.90;;;;;;5076336;28;20504;-94
2023/08/22 08:23:19;;;;;;;5.80;1.98;;;20.60;99.90;;;;;;5073874;28;20389;-95
2023/08/22 08:25:55;;;;;;;9.95;2.70;;;20.60;99.90;;;;;;5074123;28;20041;-94
2023/08/22 08:28:23;;;;;;;5.35;2.05;;;20.60;99.90;;;;;;5073446;28;20070;-93
2023/08/22 08:30:53;;;;;;;8.93;1.88;;;20.60;99.90;;;;;;5073908;28;20091;-94
2023/08/22 08:33:20;;;;;;;7.53;2.30;;;20.70;99.90;;;;;;5073065;28;20033;-94
2023/08/22 08:35:49;;;;;;;4.55;1.75;;;20.80;99.90;;;;;;5074213;28;20094;-94
2023/08/22 08:38:19;;;;;;;5.53;1.70;;;21.00;99.90;;;;;;5073069;28;20041;-94
2023/08/22 08:40:50;;;;;;;4.85;1.77;;;21.10;99.90;;;;;;5073096;28;20128;-95
2023/08/22 08:43:21;;;;;;;4.50;1.70;;;21.30;99.90;;;;;;5072787;28;20103;-94
2023/08/22 08:45:51;;;;;;;6.68;2.30;;;21.30;99.90;;;;;;5073608;28;20045;-95
2023/08/22 08:48:22;;;;;;;4.22;1.67;;;21.40;99.90;;;;;;5073755;28;20040;-94
2023/08/22 08:50:53;;;;;;;4.35;1.80;;;21.40;99.90;;;;;;5087191;28;20135;-94
2023/08/22 08:53:26;;;;;;;4.60;1.55;;;21.50;99.90;;;;;;5093071;28;20032;-93
2023/08/22 08:55:56;;;;;;;6.75;1.65;;;21.60;99.90;;;;;;5076905;28;20095;-93
2023/08/22 08:58:23;;;;;;;3.63;1.42;;;21.60;99.90;;;;;;5092893;28;20080;-94
2023/08/22 09:00:54;;;;;;;4.32;1.55;;;21.70;99.90;;;;;;5076851;28;20095;-95
2023/08/22 09:03:24;;;;;;;4.15;1.10;;;21.70;99.90;;;;;;5092265;28;20519;-85
2023/08/22 09:05:51;;;;;;;5.80;1.70;;;21.90;99.90;;;;;;5085800;28;20131;-90
2023/08/22 09:08:19;;;;;;;3.03;1.30;;;21.90;99.90;;;;;;5056153;28;20040;-90
2023/08/22 09:10:52;;;;;;;4.13;1.40;;;21.90;99.90;;;;;;5071624;28;20036;-90
2023/08/22 09:13:27;;;;;;;4.90;1.70;;;22.10;99.90;;;;;;5071971;28;20072;-90
2023/08/22 09:16:01;;;;;;;3.42;1.38;;;22.30;99.90;;;;;;5072295;28;20049;-90
2023/08/22 09:18:28;;;;;;;3.75;1.40;;;22.50;99.90;;;;;;5071612;28;20041;-90
2023/08/22 09:21:07;;;;;;;6.32;1.80;;;22.70;99.90;;;;;;5072064;28;20049;-89
2023/08/22 09:23:34;;;;;;;4.85;1.70;;;22.80;99.90;;;;;;5070729;28;20063;-96
2023/08/22 09:26:02;;;;;;;2.80;1.45;;;22.90;99.90;;;;;;5093202;28;20048;-91
2023/08/22 09:28:30;;;;;;;4.88;1.60;;;23.00;99.90;;;;;;5070762;28;20622;-95
2023/08/22 09:31:01;;;;;;;4.15;1.70;;;23.20;99.90;;;;;;5072945;28;20033;-93
2023/08/22 09:33:28;;;;;;;6.82;1.70;;;23.30;99.90;;;;;;5072298;28;20033;-93
2023/08/22 09:35:56;;;;;;;3.40;1.35;;;23.40;99.90;;;;;;5071603;28;20519;-94
2023/08/22 09:38:23;;;;;;;4.95;1.70;;;23.50;99.90;;;;;;5071780;28;20070;-92
2023/08/22 09:40:55;;;;;;;4.38;1.77;;;23.50;99.90;;;;;;5071605;28;20136;-94
2023/08/22 09:43:22;;;;;;;7.97;1.40;;;23.60;99.90;;;;;;5055103;28;20095;-92
2023/08/22 09:45:52;;;;;;;4.15;1.65;;;23.60;99.90;;;;;;5071600;28;20575;-94
2023/08/22 09:48:23;;;;;;;4.22;1.60;;;23.60;99.90;;;;;;5071533;28;20037;-92
2023/08/22 09:50:57;;;;;;;3.75;1.65;;;23.40;99.90;;;;;;5101169;28;20056;-94
2023/08/22 09:53:33;;;;;;;6.47;1.60;;;23.20;99.90;;;;;;5092975;28;20037;-93
2023/08/22 09:57:08;;;;;;;4.88;1.70;;;23.00;99.90;;;;;;5076277;28;20051;-94
2023/08/22 09:59:43;;;;;;;4.93;1.40;;;22.80;99.90;;;;;;5081941;28;20057;-95
2023/08/22 10:02:13;;;;;;;3.70;1.20;;;23.00;99.90;;;;;;5092945;28;20037;-95
2023/08/22 10:04:44;;;;;;;2.45;1.15;;;23.20;99.90;;;;;;5093045;28;20079;-95
2023/08/22 10:07:19;;;;;;;4.88;1.25;;;23.20;99.90;;;;;;5090768;28;20495;-93
2023/08/22 10:09:49;;;;;;;3.42;1.23;;;23.30;99.90;;;;;;5091788;28;20051;-92
2023/08/22 10:12:31;;;;;;;3.95;1.23;;;23.50;99.90;;;;;;5073958;28;20048;-93
2023/08/22 10:15:06;;;;;;;4.13;1.40;;;23.70;99.90;;;;;;5091728;28;20056;-93
2023/08/22 10:17:43;;;;;;;;;;;23.80;99.90;;;;;;5076004;28;20056;-94
2023/08/22 10:20:32;;;;;;;7.53;1.60;;;23.80;99.90;;;;;;5092964;28;20002;-94
2023/08/22 10:23:01;;;;;;;3.55;1.38;;;23.90;99.90;;;;;;5091302;28;20040;-91
2023/08/22 10:25:48;;;;;;;4.15;1.60;;;23.90;99.90;;;;;;5091103;28;20053;-93
2023/08/22 10:28:26;;;;;;;;;;;;;;;;;;;;;
2023/08/22 10:31:13;;;;;;;3.55;1.40;;;23.80;99.90;;;;;;5092878;28;20075;-95
2023/08/22 10:37:29;;;;;;;4.57;1.30;;;24.00;99.90;;;;;;5084665;28;20076;-96
2023/08/22 10:40:09;;;;;;;4.90;1.50;;;24.00;99.90;;;;;;5091656;28;20455;-96
2023/08/22 10:43:00;;;;;;;3.63;1.30;;;23.90;99.90;;;;;;5092547;28;20087;-93
2023/08/22 10:45:39;;;;;;;6.35;1.52;;;23.90;99.90;;;;;;5089899;28;20131;-89
2023/08/22 10:48:12;;;;;;;3.15;1.48;;;24.00;99.90;;;;;;5092028;28;20032;-89
2023/08/22 10:50:43;;;;;;;4.40;1.40;;;24.20;99.90;;;;;;5090005;28;20501;-89
2023/08/22 10:53:42;;;;;;;3.00;1.20;;;24.30;99.90;;;;;;5097717;28;20037;-93
2023/08/22 10:56:24;;;;;;;3.47;1.20;;;24.40;99.90;;;;;;5101798;28;20101;-96
2023/08/22 10:59:09;;;;;;;4.30;1.40;;;24.50;99.90;;;;;;5101326;28;20052;-96
2023/08/22 11:02:18;;;;;;;3.05;1.40;;;24.40;99.90;;;;;;5103535;28;20100;-96
2023/08/22 11:05:10;;;;;;;4.18;1.30;;;24.30;99.90;;;;;;5105605;28;20059;-92
2023/08/22 11:07:55;;;;;;;5.13;1.63;;;24.60;99.90;;;;;;5094669;28;20049;-91
2023/08/22 11:10:24;;;;;;;2.50;1.27;;;24.90;99.90;;;;;;5093653;28;20083;-90
2023/08/22 11:12:54;;;;;;;3.00;1.08;;;24.80;99.90;;;;;;5094471;28;20041;-91
2023/08/22 11:15:21;;;;;;;4.20;1.33;;;24.90;99.90;;;;;;5093771;28;20036;-90
2023/08/22 11:17:52;;;;;;;2.20;1.08;;;24.90;99.90;;;;;;5094372;28;20067;-89
2023/08/22 11:20:20;;;;;;;2.63;1.20;;;25.00;99.90;;;;;;5094567;28;20127;-87
2023/08/22 11:22:48;;;;;;;2.50;1.17;;;25.00;99.90;;;;;;5093447;28;20503;-90
2023/08/22 11:25:25;;;;;;;2.95;1.20;;;25.00;99.90;;;;;;5093280;28;20036;-89
2023/08/22 11:28:00;;;;;;;3.08;1.20;;;25.10;99.90;;;;;;5093818;28;20036;-92
2023/08/22 11:30:30;;;;;;;2.55;1.20;;;25.20;99.90;;;;;;5094312;28;20048;-90
2023/08/22 11:32:57;;;;;;;3.63;1.10;;;25.20;99.90;;;;;;5094311;28;20086;-91
2023/08/22 11:35:23;;;;;;;2.30;1.00;;;25.30;99.90;;;;;;5093846;28;20044;-93
2023/08/22 11:37:50;;;;;;;4.53;1.10;;;25.40;99.90;;;;;;5078669;28;20382;-93
2023/08/22 11:40:17;;;;;;;2.45;1.20;;;25.20;99.90;;;;;;5079598;28;20098;-90
2023/08/22 11:42:47;;;;;;;4.15;1.08;;;25.20;99.90;;;;;;5081762;28;20044;-95
2023/08/22 11:45:17;;;;;;;4.03;1.05;;;25.30;99.90;;;;;;5082152;28;20044;-89
2023/08/22 11:47:54;;;;;;;2.33;1.23;;;25.30;99.90;;;;;;5078478;28;20131;-95
2023/08/22 11:50:27;;;;;;;4.47;1.27;;;25.30;99.90;;;;;;5095127;28;20056;-95
2023/08/22 11:52:56;;;;;;;4.35;1.38;;;25.30;99.90;;;;;;5078607;28;20041;-96
2023/08/22 11:55:27;;;;;;;5.07;1.40;;;25.40;99.90;;;;;;5094904;28;20040;-95
2023/08/22 11:57:58;;;;;;;2.90;1.25;;;25.50;99.90;;;;;;5077399;28;20052;-96
2023/08/22 12:00:27;;;;;;;2.38;1.17;;;25.60;99.90;;;;;;5093791;28;20051;-93
2023/08/22 12:02:55;;;;;;;4.90;1.33;;;25.40;99.90;;;;;;5111494;28;20048;-96
2023/08/22 12:05:34;;;;;;;4.35;1.58;;;25.60;99.90;;;;;;5094286;28;20041;-92
2023/08/22 12:08:07;;;;;;;2.67;1.30;;;25.50;99.90;;;;;;5094485;28;20051;-96
2023/08/22 12:10:52;;;;;;;3.38;1.40;;;25.60;99.90;;;;;;5098023;28;20033;-90
2023/08/22 12:13:21;;;;;;;4.82;1.30;;;25.50;99.40;;;;;;5097508;28;20096;-93
2023/08/22 12:15:49;;;;;;;2.78;1.20;;;25.60;99.90;;;;;;5097507;28;20100;-91
2023/08/22 12:18:29;;;;;;;2.38;0.98;;;25.70;99.90;;;;;;5096238;28;20606;-93
2023/08/22 12:20:56;;;;;;;2.85;1.20;;;25.70;99.10;;;;;;5094352;28;20076;-93
2023/08/22 12:23:23;;;;;;;3.17;1.30;;;25.70;98.30;;;;;;5093789;28;20083;-93
2023/08/22 12:25:50;;;;;;;2.67;1.23;;;25.70;99.90;;;;;;5077508;28;20256;-94
2023/08/22 12:28:17;;;;;;;4.65;1.02;;;25.70;99.50;;;;;;5094524;28;20115;-93
2023/08/22 12:30:46;;;;;;;3.22;1.33;;;25.60;99.30;;;;;;5094405;28;20058;-94
2023/08/22 12:33:12;;;;;;;3.85;1.20;;;25.60;99.80;;;;;;5094433;28;20044;-91
2023/08/22 12:35:39;;;;;;;2.55;1.40;;;25.60;99.40;;;;;;5081923;28;20073;-96
2023/08/22 12:38:10;;;;;;;2.75;1.40;;;25.60;99.90;;;;;;5096483;28;20137;-93
2023/08/22 12:40:37;;;;;;;5.22;1.40;;;25.70;99.90;;;;;;5100981;28;20079;-94
2023/08/22 12:43:03;;;;;;;2.75;1.20;;;25.60;99.90;;;;;;5092566;28;20098;-92
2023/08/22 12:45:31;;;;;;;2.28;1.05;;;25.80;99.90;;;;;;5077272;28;20049;-89
2023/08/22 12:48:05;;;;;;;3.63;1.10;;;25.90;99.60;;;;;;5076380;28;20037;-93
2023/08/22 12:50:35;;;;;;;;;;;25.80;99.00;;;;;;5078197;28;20539;-93
2023/08/22 12:53:09;;;;;;;3.63;1.10;;;25.70;98.50;;;;;;5077265;28;19923;-93
2023/08/22 12:55:37;;;;;;;4.30;1.20;;;25.40;99.00;;;;;;5076477;28;20087;-91
2023/08/22 12:58:06;;;;;;;2.85;1.30;;;25.40;99.90;;;;;;5077245;28;20079;-93
2023/08/22 13:00:34;;;;;;;6.65;1.30;;;25.40;99.90;;;;;;5077329;28;20047;-93
2023/08/22 13:03:08;;;;;;;2.55;1.00;;;25.60;99.90;;;;;;5076380;28;20048;-94
2023/08/22 13:05:38;;;;;;;3.92;1.17;;;25.40;99.90;;;;;;5076520;28;20045;-94
2023/08/22 13:08:08;;;;;;;3.38;0.93;;;25.40;99.90;;;;;;5077496;28;20043;-95
2023/08/22 13:10:40;;;;;;;2.97;1.20;;;25.40;99.50;;;;;;5093221;28;20040;-93
2023/08/22 13:13:10;;;;;;;1.67;0.80;;;25.40;99.90;;;;;;5093231;28;20041;-93
2023/08/22 13:15:41;;;;;;;3.08;1.10;;;25.50;99.80;;;;;;5092263;28;20047;-96
2023/08/22 13:18:08;;;;;;;1.58;0.80;;;25.50;99.90;;;;;;5092742;28;20059;-94